TIME NOW
World current time now,
CALENDAR
Calendar monthly, yearly
login GOLD PRICE, RATE
login HOROSCOPE
login DICTIONARIES, LISTS
login SCIENCE EDUCATION RELIGION
login FINANCE, BUSINESS
login WORLD COUNTRIES, WIKI

World currency exchange rate, foreign rate

Haitian gourde currency exchange rate

Countries (Yahoo finance)

COUNTRY AND WIKI
Haiti Country flag ht  HTG 

1 HTG exchange rate

CURRENCYRATEBIDASKDATE
 AED  Emirati dirham Country flag ae  0.0539   0.0539   0.0539    3/22/2017   10:01am 
 ARS  Argentine peso Country flag ar  0.2291   0.2291   0.2291    3/22/2017   3:21am 
 AUD  Australian dollar Country flag au  0.0191   0.0191   0.0192    3/22/2017   10:49am 
 AZN  Azerbaijani manat Country flag az  0.0252   0.0252   0.0252    3/22/2017   3:21am 
 BGN  Bulgarian lev Country flag bg  0.0266   0.0266   N/A    3/22/2017   3:21am 
 BHD  Bahraini dinar Country flag bh  0.0055   0.0055   0.0055    3/22/2017   7:50am 
 BRL  Brazilian real Country flag br  0.0452   0.0452   0.0453    3/22/2017   10:00am 
 BYR  Belarusian ruble Country flag by  293.5914   293.5914   293.9580    3/22/2017   3:21am 
 CAD  Canadian dollar Country flag ca  0.0197   0.0197   0.0197    3/22/2017   10:49am 
 CHF  Swiss franc Country flag ch  0.0146   0.0146   0.0146    3/22/2017   10:49am 
 CLP  Chilean peso Country flag cl  9.6788   9.6788   9.6935    3/22/2017   10:49am 
 CNY  Chinese yuan Renminbi Country flag cn  0.1010   0.1010   0.1010    3/22/2017   10:49am 
 CZK  Czech koruna Country flag cz  0.3672   0.3672   0.3672    3/22/2017   10:49am 
 DKK  Danish krone Country flag dk  0.1011   0.1011   0.1011    3/22/2017   10:49am 
 EGP  Egyptian pound Country flag eg  0.2654   0.2654   0.2676    3/22/2017   3:21am 
 EUR  Euro Country flag eu  0.0136   0.0136   0.0136    3/22/2017   10:49am 
 GBP  British pound Country flag gb  0.0118   0.0118   0.0118    3/22/2017   10:49am 
 GEL  Georgian lari Country flag ge  0.0358   0.0358   0.0361    3/22/2017   3:21am 
 HKD  Hong Kong dollar Country flag hk  0.1139   0.1139   0.1139    3/22/2017   10:49am 
 HRK  Croatian cuna Country flag hr  0.1002   0.1002   0.1013    3/22/2017   10:49am 
 HUF  Hungarian forint Country flag hu  4.1924   4.1924   4.1953    3/22/2017   10:49am 
 ILS  Israeli shekel Country flag il  0.0536   0.0536   0.0537    3/22/2017   10:49am 
 INR  Indian rupee Country flag in  0.9602   0.9602   0.9603    3/22/2017   10:49am 
 ISK  Icelandic krona Country flag is  1.6021   1.6021   1.6095    3/22/2017   3:21am 
 JPY  Japanese yen Country flag jp  1.6314   1.6314   1.6315    3/22/2017   10:49am 
 KRW  South Korean won Country flag kr  16.4468   16.4468   16.4615    3/22/2017   10:48am 
 KZT  Kazakh tenge Country flag kz  4.6250   4.6250   4.6258    3/22/2017   3:21am 
 LKR  Sri Lankan rupee Country flag lk  2.2228   2.2228   2.2302    3/22/2017   10:25am 
 MAD  Moroccan dirham Country flag ma  0.1462   0.1462   0.1464    3/22/2017   10:49am 
 MDL  Moldovan leu Country flag md  0.2850   0.2850   0.2865    3/22/2017   8:34am 
 MKD  Macedonia denar Country flag mk  0.8321   0.8321   0.8365    3/22/2017   10:49am 
 MXN  Mexican peso Country flag mx  0.2815   0.2815   0.2816    3/22/2017   10:49am 
 MZN  Mozambican metical Country flag mz  1.0330   1.0330   1.0477    3/22/2017   3:21am 
 NOK  Norwegian krone Country flag no  0.1248   0.1248   0.1248    3/22/2017   10:49am 
 NZD  New Zealand dollar Country flag nz  0.0209   0.0209   0.0209    3/22/2017   10:48am 
 PLN  Polish zloty Country flag pl  0.0582   0.0582   0.0582    3/22/2017   10:49am 
 QAR  Qatari riyal Country flag qa  0.0534   0.0534   0.0534    3/22/2017   8:32am 
 RON  Romanian leu Country flag ro  0.0620   0.0620   0.0621    3/22/2017   10:49am 
 RSD  Serbian dinar Country flag rs  1.6768   1.6768   1.6869    3/22/2017   8:30am 
 RUB  Russian ruble Country flag ru  0.8514   0.8514   0.8515    3/22/2017   10:49am 
 SAR  Saudi riyal Country flag sa  0.0550   0.0550   0.0550    3/22/2017   8:41am 
 SGD  Singapore dollar Country flag sg  0.0205   0.0205   0.0205    3/22/2017   10:49am 
 THB  Thai baht Country flag th  0.5078   0.5078   0.5086    3/22/2017   10:49am 
 TMT  Turkmenistan manat Country flag tm  0.0499   0.0499   0.0528    3/22/2017   3:21am 
 TND  Tunisian dinar Country flag tn  0.0332   0.0332   0.0332    3/22/2017   10:49am 
 TRY  Turkish lira Country flag tr  0.0532   0.0532   0.0532    3/22/2017   10:49am 
 TWD  Taiwanese dollar Country flag tw  0.4471   0.4471   0.4486    3/22/2017   10:48am 
 UAH  Ukrainian hryvnia Country flag ua  0.3943   0.3943   0.3980    3/22/2017   7:53am 
 USD  United States dollar Country flag us  0.0147   0.0147   0.0147    3/22/2017   3:21am 
 YER  Yemeni rial Country flag ye  3.6655   3.6655   3.6670    3/22/2017   3:21am 
 ZAR  South African rand Country flag za  0.1851   0.1851   0.1852    3/22/2017   10:49am 
 ZWL  Zimbabwean dollar Country flag zw  4.7273   4.7273   4.7746    3/22/2017   3:21am 



 Use username: Guest, Anonymous, Programmer






QUOTES:
They cannot scare me with their empty spaces between stars -- on stars where no human race is. I have it in me so much nearer home to scare myself with my own desert places.
Robert Frost
Literature is strewn with the wreckage of those who have minded beyond reason the opinion of others.
Virginia Woolf
America shudders at anything alien, and when it wants to shut its mind against any man's ideas, it calls him a foreigner.
Max Lerner